createdAt,value
2022-08-31T00:00:12.283Z,9.07
2022-08-31T00:02:58.489Z,8.48
2022-08-31T00:05:25.898Z,7.45
2022-08-31T00:07:53.113Z,7.85
2022-08-31T00:10:32.546Z,8.30
2022-08-31T00:13:07.016Z,8.50
2022-08-31T00:15:35.799Z,8.55
2022-08-31T00:18:04.210Z,8.32
2022-08-31T00:20:34.187Z,8.45
2022-08-31T00:23:04.691Z,8.82
2022-08-31T00:25:33.892Z,8.40
2022-08-31T00:28:01.187Z,8.40
2022-08-31T00:30:30.232Z,9.15
2022-08-31T00:32:58.542Z,8.75
2022-08-31T00:35:27.760Z,8.57
2022-08-31T00:37:55.717Z,9.13
2022-08-31T00:40:23.600Z,9.68
2022-08-31T00:42:51.050Z,9.02
2022-08-31T00:45:18.593Z,9.05
2022-08-31T00:47:45.779Z,9.20
2022-08-31T00:50:16.261Z,8.70
2022-08-31T00:52:48.478Z,8.53
2022-08-31T00:55:27.966Z,9.00
2022-08-31T00:57:59.973Z,8.45
2022-08-31T01:00:29.122Z,9.00
2022-08-31T01:02:59.674Z,9.13
2022-08-31T01:05:26.882Z,9.20
2022-08-31T01:07:54.214Z,9.27
2022-08-31T01:10:24.576Z,9.73
2022-08-31T01:12:54.985Z,9.55
2022-08-31T01:15:25.080Z,10.25
2022-08-31T01:17:55.325Z,9.55
2022-08-31T01:20:48.713Z,9.20
2022-08-31T01:23:23.250Z,8.82
2022-08-31T01:25:52.662Z,10.05
2022-08-31T01:28:20.069Z,9.75
2022-08-31T01:31:00.083Z,10.00
2022-08-31T01:33:28.046Z,10.05
2022-08-31T01:35:55.755Z,9.95
2022-08-31T01:38:23.333Z,10.15
2022-08-31T01:40:56.538Z,10.07
2022-08-31T01:43:24.560Z,9.65
2022-08-31T01:45:52.058Z,10.70
2022-08-31T01:48:22.181Z,10.45
2022-08-31T01:50:49.699Z,10.68
2022-08-31T01:53:17.969Z,10.57
2022-08-31T01:55:46.532Z,11.23
2022-08-31T01:58:14.729Z,11.52
2022-08-31T02:01:00.886Z,11.32
2022-08-31T02:03:28.158Z,11.88
2022-08-31T02:08:22.021Z,10.90
2022-08-31T02:10:50.907Z,11.00
2022-08-31T02:13:18.508Z,10.75
2022-08-31T02:15:45.944Z,11.25
2022-08-31T02:18:15.192Z,11.90
2022-08-31T02:20:42.561Z,11.55
2022-08-31T02:23:10.475Z,10.88
2022-08-31T02:25:37.883Z,11.35
2022-08-31T02:28:05.306Z,9.85
2022-08-31T02:30:32.660Z,11.27
2022-08-31T02:32:59.693Z,10.93
2022-08-31T02:35:27.345Z,10.70
2022-08-31T02:37:54.914Z,10.70
2022-08-31T02:40:22.618Z,10.95
2022-08-31T02:42:53.862Z,10.98
2022-08-31T02:45:27.325Z,11.38
2022-08-31T02:48:01.318Z,11.38
2022-08-31T02:50:43.546Z,12.45
2022-08-31T02:53:13.404Z,12.02
2022-08-31T02:55:43.086Z,12.23
2022-08-31T02:58:12.224Z,12.55
2022-08-31T03:00:44.181Z,11.82
2022-08-31T03:03:11.517Z,11.82
2022-08-31T03:05:39.215Z,11.48
2022-08-31T03:08:07.960Z,12.73
2022-08-31T03:10:35.821Z,11.70
2022-08-31T03:13:02.879Z,11.30
2022-08-31T03:15:30.405Z,11.90
2022-08-31T03:18:06.773Z,12.15
2022-08-31T03:20:34.955Z,11.15
2022-08-31T03:23:03.529Z,11.63
2022-08-31T03:25:32.298Z,11.13
2022-08-31T03:28:00.304Z,10.98
2022-08-31T03:30:32.031Z,11.20
2022-08-31T03:33:07.069Z,11.13
2022-08-31T03:35:35.889Z,11.25
2022-08-31T03:38:03.446Z,11.57
2022-08-31T03:40:30.809Z,11.02
2022-08-31T03:42:58.998Z,11.60
2022-08-31T03:45:28.020Z,11.45
2022-08-31T03:47:55.615Z,12.27
2022-08-31T03:50:24.808Z,11.40
2022-08-31T03:53:04.365Z,11.80
2022-08-31T03:55:33.067Z,11.40
2022-08-31T03:58:00.782Z,11.52
2022-08-31T04:00:28.821Z,11.90
2022-08-31T04:03:02.618Z,13.27
2022-08-31T04:05:35.333Z,12.32
2022-08-31T04:08:08.210Z,13.85
2022-08-31T04:10:54.252Z,13.75
2022-08-31T04:13:27.986Z,14.68
2022-08-31T04:16:19.729Z,13.63
2022-08-31T04:19:24.993Z,13.23
2022-08-31T04:21:59.549Z,14.15
2022-08-31T04:24:29.622Z,14.00
2022-08-31T04:26:56.740Z,13.07
2022-08-31T04:29:24.224Z,12.63
2022-08-31T04:31:51.413Z,13.93
2022-08-31T04:34:18.602Z,13.73
2022-08-31T04:36:45.986Z,14.43
2022-08-31T04:39:14.672Z,13.52
2022-08-31T04:41:44.886Z,13.13
2022-08-31T04:44:17.711Z,12.98
2022-08-31T04:46:49.298Z,13.15
2022-08-31T04:49:16.412Z,12.93
2022-08-31T04:51:44.640Z,14.10
2022-08-31T04:54:14.003Z,14.02
2022-08-31T04:56:45.451Z,13.67
2022-08-31T04:59:26.154Z,14.60
2022-08-31T05:02:16.922Z,13.57
2022-08-31T05:04:50.049Z,12.88
2022-08-31T05:07:17.194Z,13.57
2022-08-31T05:09:44.802Z,14.63
2022-08-31T05:12:12.219Z,14.25
2022-08-31T05:14:39.478Z,14.70
2022-08-31T05:17:17.847Z,15.00
2022-08-31T05:19:45.371Z,15.50
2022-08-31T05:22:15.010Z,15.13
2022-08-31T05:24:44.289Z,13.90
2022-08-31T05:27:13.095Z,12.10
2022-08-31T05:29:41.347Z,12.70
2022-08-31T05:32:31.369Z,12.55
2022-08-31T05:35:00.537Z,12.10
2022-08-31T05:37:27.855Z,13.05
2022-08-31T05:39:55.293Z,10.63
2022-08-31T05:42:22.466Z,11.98
2022-08-31T05:44:50.119Z,11.20
2022-08-31T05:47:17.592Z,11.50
2022-08-31T05:49:45.176Z,12.05
2022-08-31T05:52:17.210Z,11.48
2022-08-31T05:54:44.565Z,10.98
2022-08-31T05:57:11.907Z,10.38
2022-08-31T05:59:40.236Z,10.10
2022-08-31T06:02:11.066Z,10.02
2022-08-31T06:04:39.262Z,10.32
2022-08-31T06:07:06.530Z,9.60
2022-08-31T06:09:51.270Z,10.27
2022-08-31T06:12:20.117Z,10.13
2022-08-31T06:14:51.259Z,9.50
2022-08-31T06:17:20.952Z,10.52
2022-08-31T06:19:48.168Z,11.20
2022-08-31T06:22:15.610Z,10.02
2022-08-31T06:24:43.139Z,9.48
2022-08-31T06:27:10.467Z,10.15
2022-08-31T06:29:37.977Z,9.13
2022-08-31T06:32:08.344Z,9.45
2022-08-31T06:34:40.057Z,9.32
2022-08-31T06:37:18.269Z,9.23
2022-08-31T06:40:15.582Z,8.75
2022-08-31T06:42:57.368Z,9.27
2022-08-31T06:45:47.408Z,9.35
2022-08-31T06:48:33.280Z,8.25
2022-08-31T06:51:01.087Z,8.43
2022-08-31T06:53:29.798Z,8.90
2022-08-31T06:56:21.392Z,8.77
2022-08-31T06:59:08.306Z,8.50
2022-08-31T07:01:56.016Z,8.20
2022-08-31T07:04:35.158Z,8.07
2022-08-31T07:07:04.667Z,8.00
2022-08-31T07:09:32.307Z,7.50
2022-08-31T07:11:59.485Z,9.13
2022-08-31T07:14:27.808Z,8.45
2022-08-31T07:16:58.665Z,8.53
2022-08-31T07:19:27.343Z,7.45
2022-08-31T07:21:58.686Z,7.80
2022-08-31T07:24:30.622Z,8.77
2022-08-31T07:27:02.386Z,8.25
2022-08-31T07:29:43.026Z,7.70
2022-08-31T07:32:14.787Z,7.35
2022-08-31T07:34:44.570Z,8.35
2022-08-31T07:37:42.093Z,8.27
2022-08-31T07:40:29.315Z,7.13
2022-08-31T07:42:56.975Z,7.07
2022-08-31T07:45:25.740Z,7.43
2022-08-31T07:47:57.918Z,7.80
2022-08-31T07:50:28.055Z,7.07
2022-08-31T07:53:18.526Z,6.15
2022-08-31T07:55:56.794Z,7.18
2022-08-31T07:58:31.357Z,7.07
2022-08-31T08:01:03.003Z,6.97
2022-08-31T08:03:30.371Z,6.33
2022-08-31T08:06:34.170Z,6.75
2022-08-31T08:09:24.371Z,6.65
2022-08-31T08:14:54.793Z,6.72
2022-08-31T08:17:31.622Z,6.43
2022-08-31T08:20:13.554Z,6.10
2022-08-31T08:22:54.147Z,6.70
2022-08-31T08:25:35.027Z,6.20
2022-08-31T08:28:38.575Z,5.57
2022-08-31T08:31:12.834Z,6.85
2022-08-31T08:33:40.182Z,5.90
2022-08-31T08:36:08.397Z,5.32
2022-08-31T08:38:39.773Z,8.85
2022-08-31T08:41:13.856Z,6.28
2022-08-31T08:43:52.218Z,5.80
2022-08-31T08:46:36.879Z,5.55
2022-08-31T08:49:19.436Z,5.35
2022-08-31T08:51:54.363Z,5.40
2022-08-31T08:54:38.093Z,5.07
2022-08-31T08:57:18.167Z,4.95
2022-08-31T08:59:49.614Z,5.15
2022-08-31T09:02:55.976Z,5.38
2022-08-31T09:05:56.751Z,5.53
2022-08-31T09:08:51.159Z,5.28
2022-08-31T09:11:27.421Z,4.40
2022-08-31T09:14:19.752Z,5.40
2022-08-31T09:17:25.890Z,4.93
2022-08-31T09:20:00.278Z,5.63
2022-08-31T09:22:47.155Z,4.68
2022-08-31T09:25:32.850Z,4.68
2022-08-31T09:28:17.238Z,4.10
2022-08-31T09:30:44.698Z,4.55
2022-08-31T09:33:25.885Z,4.65
2022-08-31T09:38:40.515Z,5.22
2022-08-31T09:41:22.814Z,6.07
2022-08-31T09:43:50.837Z,4.25
2022-08-31T09:46:31.666Z,4.40
2022-08-31T09:49:03.263Z,5.47
2022-08-31T09:51:36.331Z,5.20
2022-08-31T09:54:34.290Z,4.60
2022-08-31T09:57:05.548Z,3.95
2022-08-31T09:59:40.144Z,4.00
2022-08-31T10:02:13.016Z,4.40
2022-08-31T10:04:55.639Z,4.07
2022-08-31T10:07:52.025Z,4.63
2022-08-31T10:10:43.216Z,4.07
2022-08-31T10:13:27.227Z,4.18
2022-08-31T10:16:07.289Z,4.20
2022-08-31T10:19:02.871Z,4.23
2022-08-31T10:21:52.404Z,3.70
2022-08-31T10:24:47.504Z,4.03
2022-08-31T10:27:38.550Z,4.10
2022-08-31T10:30:23.350Z,3.92
2022-08-31T10:33:00.607Z,4.68
2022-08-31T10:35:55.926Z,4.13
2022-08-31T10:38:35.388Z,3.95
2022-08-31T10:41:10.141Z,4.28
2022-08-31T10:44:26.542Z,5.65
2022-08-31T10:47:02.907Z,4.30
2022-08-31T10:49:30.379Z,4.72
2022-08-31T10:52:21.003Z,3.50
2022-08-31T10:55:13.150Z,3.85
2022-08-31T10:57:49.905Z,3.75
2022-08-31T11:00:41.950Z,4.10
2022-08-31T11:03:09.143Z,4.18
2022-08-31T11:05:55.100Z,4.05
2022-08-31T11:08:37.313Z,3.63
2022-08-31T11:11:10.120Z,3.50
2022-08-31T11:13:49.725Z,4.18
2022-08-31T11:16:32.818Z,4.70
2022-08-31T11:19:20.360Z,3.60
2022-08-31T11:22:14.215Z,3.72
2022-08-31T11:25:03.511Z,3.22
2022-08-31T11:27:41.014Z,4.05
2022-08-31T11:30:11.188Z,3.13
2022-08-31T11:32:50.682Z,3.73
2022-08-31T11:35:49.630Z,3.65
2022-08-31T11:38:48.522Z,3.38
2022-08-31T11:41:46.851Z,3.72
2022-08-31T11:44:33.057Z,3.63
2022-08-31T11:47:12.992Z,3.80
2022-08-31T11:49:50.324Z,3.78
2022-08-31T11:52:29.990Z,3.97
2022-08-31T11:55:03.027Z,3.95
2022-08-31T11:57:37.460Z,3.15
2022-08-31T12:00:19.991Z,3.60
2022-08-31T12:03:04.711Z,3.67
2022-08-31T12:05:56.395Z,3.15
2022-08-31T12:08:28.459Z,3.30
2022-08-31T12:11:10.215Z,3.72
2022-08-31T12:13:45.942Z,3.75
2022-08-31T12:16:30.131Z,3.42
2022-08-31T12:19:03.621Z,3.55
2022-08-31T12:21:56.283Z,3.50
2022-08-31T12:24:23.322Z,3.47
2022-08-31T12:27:09.201Z,3.90
2022-08-31T12:29:40.282Z,3.17
2022-08-31T12:32:19.346Z,3.47
2022-08-31T12:35:17.678Z,4.22
2022-08-31T12:37:45.097Z,3.67
2022-08-31T12:40:16.059Z,3.33
2022-08-31T12:43:01.035Z,4.07
2022-08-31T12:45:43.693Z,3.55
2022-08-31T12:48:37.210Z,3.60
2022-08-31T12:51:13.097Z,4.22
2022-08-31T12:53:52.569Z,3.13
2022-08-31T12:56:22.658Z,5.00
2022-08-31T12:58:52.595Z,3.28
2022-08-31T13:01:24.156Z,3.70
2022-08-31T13:03:56.696Z,2.90
2022-08-31T13:06:33.526Z,3.85
2022-08-31T13:09:02.190Z,3.70
2022-08-31T13:11:41.129Z,3.35
2022-08-31T13:14:23.326Z,3.65
2022-08-31T13:16:55.642Z,4.35
2022-08-31T13:19:25.832Z,4.25
2022-08-31T13:21:58.328Z,4.43
2022-08-31T13:24:32.020Z,4.32
2022-08-31T13:27:20.228Z,3.30
2022-08-31T13:29:49.367Z,4.18
2022-08-31T13:32:32.324Z,3.63
2022-08-31T13:35:04.555Z,3.50
2022-08-31T13:37:37.895Z,3.70
2022-08-31T13:40:10.130Z,3.22
2022-08-31T13:42:43.018Z,3.38
2022-08-31T13:45:39.458Z,2.90
2022-08-31T13:48:13.525Z,3.63
2022-08-31T13:50:53.793Z,3.05
2022-08-31T13:53:40.229Z,3.75
2022-08-31T13:56:47.646Z,3.60
2022-08-31T13:59:24.041Z,3.00
2022-08-31T14:01:53.400Z,3.17
2022-08-31T14:04:46.557Z,4.00
2022-08-31T14:07:20.539Z,3.65
2022-08-31T14:10:19.836Z,3.28
2022-08-31T14:12:51.949Z,3.22
2022-08-31T14:15:21.663Z,3.10
2022-08-31T14:21:27.180Z,3.47
2022-08-31T14:24:05.904Z,3.38
2022-08-31T14:26:37.168Z,3.50
2022-08-31T14:29:12.496Z,3.35
2022-08-31T14:31:55.150Z,3.25
2022-08-31T14:34:25.400Z,3.00
2022-08-31T14:37:10.631Z,3.35
2022-08-31T14:39:41.940Z,3.65
2022-08-31T14:42:35.011Z,4.38
2022-08-31T14:45:21.229Z,3.75
2022-08-31T14:47:52.518Z,3.72
2022-08-31T14:50:25.055Z,3.97
2022-08-31T14:52:53.121Z,3.55
2022-08-31T14:55:22.385Z,3.80
2022-08-31T14:57:58.094Z,3.95
2022-08-31T15:00:26.034Z,5.25
2022-08-31T15:02:53.868Z,3.25
2022-08-31T15:05:23.993Z,3.10
2022-08-31T15:07:55.146Z,3.97
2022-08-31T15:10:25.768Z,3.97
2022-08-31T15:12:54.284Z,3.03
2022-08-31T15:15:21.763Z,4.13
2022-08-31T15:17:51.749Z,4.22
2022-08-31T15:20:23.100Z,3.75
2022-08-31T15:25:20.826Z,3.65
2022-08-31T15:27:49.458Z,4.32
2022-08-31T15:30:19.745Z,4.40
2022-08-31T15:32:48.319Z,3.50
2022-08-31T15:35:23.436Z,3.47
2022-08-31T15:37:56.619Z,5.00
2022-08-31T15:40:25.290Z,3.80
2022-08-31T15:42:56.610Z,3.80
2022-08-31T15:45:25.880Z,4.15
2022-08-31T15:48:11.838Z,3.78
2022-08-31T15:50:49.564Z,4.07
2022-08-31T15:53:17.233Z,3.97
2022-08-31T15:55:44.877Z,4.13
2022-08-31T15:58:12.723Z,4.03
2022-08-31T16:00:41.962Z,4.45
2022-08-31T16:03:10.191Z,4.90
2022-08-31T16:05:39.390Z,4.47
2022-08-31T16:08:10.439Z,4.85
2022-08-31T16:10:43.022Z,4.10
2022-08-31T16:13:10.700Z,4.97
2022-08-31T16:15:38.836Z,4.10
2022-08-31T16:18:07.235Z,4.05
2022-08-31T16:20:34.830Z,4.60
2022-08-31T16:23:03.134Z,4.85
2022-08-31T16:25:47.488Z,5.15
2022-08-31T16:28:21.048Z,4.68
2022-08-31T16:30:51.210Z,4.18
2022-08-31T16:33:19.689Z,4.20
2022-08-31T16:35:47.687Z,4.03
2022-08-31T16:38:15.577Z,4.13
2022-08-31T16:40:43.935Z,4.13
2022-08-31T16:43:11.289Z,3.95
2022-08-31T16:45:40.709Z,4.38
2022-08-31T16:48:29.306Z,4.57
2022-08-31T16:51:02.448Z,4.80
2022-08-31T16:53:31.005Z,6.88
2022-08-31T16:56:00.072Z,4.18
2022-08-31T16:58:50.718Z,4.55
2022-08-31T17:01:26.526Z,3.80
2022-08-31T17:04:00.321Z,4.43
2022-08-31T17:06:33.969Z,4.65
2022-08-31T17:09:05.550Z,5.07
2022-08-31T17:11:37.868Z,4.68
2022-08-31T17:14:07.801Z,4.95
2022-08-31T17:16:38.648Z,4.65
2022-08-31T17:19:10.792Z,4.68
2022-08-31T17:21:50.541Z,4.63
2022-08-31T17:24:26.890Z,4.50
2022-08-31T17:26:59.766Z,5.15
2022-08-31T17:29:34.145Z,5.63
2022-08-31T17:32:13.670Z,4.97
2022-08-31T17:34:43.183Z,6.00
2022-08-31T17:37:15.280Z,4.07
2022-08-31T17:39:44.645Z,4.00
2022-08-31T17:42:15.395Z,4.15
2022-08-31T17:44:45.021Z,4.22
2022-08-31T17:47:12.397Z,3.90
2022-08-31T17:49:44.466Z,4.00
2022-08-31T17:52:13.660Z,4.05
2022-08-31T17:54:43.206Z,4.38
2022-08-31T17:57:13.991Z,5.47
2022-08-31T17:59:44.379Z,5.00
2022-08-31T18:02:21.240Z,4.43
2022-08-31T18:04:49.017Z,4.53
2022-08-31T18:07:16.647Z,4.75
2022-08-31T18:09:48.084Z,4.20
2022-08-31T18:12:18.148Z,4.60
2022-08-31T18:14:45.266Z,4.85
2022-08-31T18:17:16.379Z,4.35
2022-08-31T18:22:14.419Z,4.10
2022-08-31T18:24:42.707Z,5.85
2022-08-31T18:27:15.492Z,4.25
2022-08-31T18:29:44.385Z,3.95
2022-08-31T18:32:12.388Z,4.07
2022-08-31T18:34:44.930Z,8.93
2022-08-31T18:37:13.073Z,4.50
2022-08-31T18:40:07.692Z,4.55
2022-08-31T18:42:56.860Z,5.25
2022-08-31T18:45:25.853Z,3.78
2022-08-31T18:50:47.330Z,5.32
2022-08-31T18:53:28.519Z,4.77
2022-08-31T18:56:06.407Z,4.50
2022-08-31T18:58:34.092Z,4.15
2022-08-31T19:01:01.568Z,4.57
2022-08-31T19:03:29.063Z,4.60
2022-08-31T19:05:57.312Z,3.83
2022-08-31T19:08:26.317Z,3.67
2022-08-31T19:10:54.367Z,5.30
2022-08-31T19:13:21.946Z,4.43
2022-08-31T19:15:49.169Z,4.45
2022-08-31T19:18:16.716Z,5.00
2022-08-31T19:20:44.091Z,4.30
2022-08-31T19:23:11.896Z,4.32
2022-08-31T19:25:43.102Z,3.72
2022-08-31T19:28:39.166Z,3.80
2022-08-31T19:31:13.046Z,3.67
2022-08-31T19:33:57.403Z,3.45
2022-08-31T19:36:40.449Z,3.15
2022-08-31T19:39:10.790Z,4.00
2022-08-31T19:41:49.256Z,4.47
2022-08-31T19:44:17.641Z,3.92
2022-08-31T19:46:54.091Z,3.53
2022-08-31T19:49:21.729Z,4.13
2022-08-31T19:51:56.661Z,3.28
2022-08-31T19:54:31.304Z,3.28
2022-08-31T19:57:02.161Z,3.78
2022-08-31T19:59:30.030Z,2.92
2022-08-31T20:01:59.459Z,3.20
2022-08-31T20:04:28.819Z,3.70
2022-08-31T20:06:57.302Z,3.58
2022-08-31T20:09:25.535Z,3.80
2022-08-31T20:11:54.676Z,4.10
2022-08-31T20:14:23.466Z,4.38
2022-08-31T20:16:52.289Z,3.88
2022-08-31T20:19:25.373Z,4.80
2022-08-31T20:21:55.193Z,4.30
2022-08-31T20:24:28.118Z,4.60
2022-08-31T20:26:59.933Z,4.68
2022-08-31T20:29:27.911Z,4.60
2022-08-31T20:31:56.244Z,4.20
2022-08-31T20:34:28.211Z,5.15
2022-08-31T20:37:00.927Z,4.82
2022-08-31T20:39:30.980Z,4.90
2022-08-31T20:42:00.204Z,4.45
2022-08-31T20:44:35.641Z,4.22
2022-08-31T20:47:27.309Z,4.10
2022-08-31T20:50:01.003Z,4.32
2022-08-31T20:52:32.610Z,4.50
2022-08-31T20:55:02.585Z,4.38
2022-08-31T20:57:34.030Z,4.10
2022-08-31T21:00:05.600Z,3.92
2022-08-31T21:02:35.344Z,4.50
2022-08-31T21:05:33.947Z,4.60
2022-08-31T21:07:57.494Z,5.07
2022-08-31T21:10:37.027Z,4.45
2022-08-31T21:13:07.419Z,5.13
2022-08-31T21:15:34.774Z,5.03
2022-08-31T21:18:02.216Z,4.80
2022-08-31T21:20:29.408Z,4.32
2022-08-31T21:22:56.617Z,4.90
2022-08-31T21:25:23.889Z,4.88
2022-08-31T21:27:53.018Z,4.60
2022-08-31T21:30:20.405Z,4.80
2022-08-31T21:32:56.121Z,4.47
2022-08-31T21:35:27.559Z,4.47
2022-08-31T21:37:57.029Z,5.00
2022-08-31T21:40:24.705Z,4.82
2022-08-31T21:42:51.713Z,4.88
2022-08-31T21:45:19.111Z,4.82
2022-08-31T21:47:46.218Z,5.10
2022-08-31T21:50:13.703Z,4.72
2022-08-31T21:52:41.107Z,5.07
2022-08-31T21:55:13.683Z,4.38
2022-08-31T21:57:41.921Z,5.32
2022-08-31T22:00:15.958Z,4.25
2022-08-31T22:02:47.418Z,4.05
2022-08-31T22:05:15.282Z,4.55
2022-08-31T22:07:43.232Z,4.43
2022-08-31T22:10:12.230Z,3.90
2022-08-31T22:12:39.475Z,3.70
2022-08-31T22:15:10.449Z,4.72
2022-08-31T22:18:02.114Z,3.83
2022-08-31T22:20:27.865Z,4.22
2022-08-31T22:22:55.255Z,4.80
2022-08-31T22:25:22.651Z,4.70
2022-08-31T22:27:51.441Z,5.15
2022-08-31T22:30:20.331Z,5.68
2022-08-31T22:32:48.032Z,5.05
2022-08-31T22:35:18.557Z,5.03
2022-08-31T22:37:46.321Z,5.50
2022-08-31T22:40:21.894Z,5.60
2022-08-31T22:42:54.260Z,4.90
2022-08-31T22:45:23.911Z,5.78
2022-08-31T22:47:51.969Z,4.95
2022-08-31T22:50:20.413Z,5.78
2022-08-31T22:52:48.315Z,5.50
2022-08-31T22:55:15.815Z,4.78
2022-08-31T22:57:42.948Z,5.32
2022-08-31T23:00:14.725Z,4.95
2022-08-31T23:02:45.379Z,5.60
2022-08-31T23:05:15.260Z,5.70
2022-08-31T23:07:43.075Z,5.40
2022-08-31T23:10:16.520Z,5.43
2022-08-31T23:12:46.887Z,4.93
2022-08-31T23:15:18.037Z,5.22
2022-08-31T23:17:51.586Z,5.43
2022-08-31T23:20:24.534Z,5.13
2022-08-31T23:22:55.028Z,4.78
2022-08-31T23:25:24.110Z,4.60
2022-08-31T23:27:52.320Z,4.90
2022-08-31T23:30:21.495Z,4.82
2022-08-31T23:32:53.524Z,5.18
2022-08-31T23:35:22.054Z,5.13
2022-08-31T23:37:50.400Z,4.93
2022-08-31T23:40:18.925Z,4.90
2022-08-31T23:42:47.248Z,5.70
2022-08-31T23:45:16.356Z,5.50
2022-08-31T23:47:43.464Z,8.05
2022-08-31T23:50:11.112Z,5.32
2022-08-31T23:52:41.716Z,5.75
2022-08-31T23:55:11.078Z,5.72
2022-08-31T23:57:39.602Z,5.38
